Aérodrome :
LOGIN :

S'inscrire | Disclaimer

   EN    FR    IT 

 










Légende :    VFR   VFR Marginal   IFR   IFR Intensif   IFR Très Intensif
Visi : 
Plafond : 
>= 8 km
>= 3000ft
5 à 8 km
1000 à 3000 ft
1500m à 5 km
500 à 1000 ft
800 à 1500m
200 à 500 ft
< 800m
< 200 ft
Symboles :   Orages  Brouillard  Fortes neiges  Fortes précipitations  Vent > 20 kt
SIGMETs :   Divers  Orages  Givrage  Turbulence  Onde Orograph.  Cendres Volcan.







- Altitude de l'aérodrome : 17 ft
- Code IATA : CPH


EKCH - København - Kastrup (Copenhagen)

DERNIER METAR :
  • 211650Z 24016G27KT 9999 FEW033 BKN140 14/09 Q1000 TEMPO SHRA

METARs EXPIRÉS :
  • 211621Z 24016KT CAVOK 14/09 Q1001 TEMPO SHRA
  • 211550Z 24016KT CAVOK 14/09 Q1000 TEMPO SHRA
  • 211520Z 25011KT CAVOK 14/11 Q0999 TEMPO SHRA
  • 211450Z 24013KT CAVOK 14/12 Q0999 RERA TEMPO SHRA
  • 211420Z 24021KT 9999 RA FEW024 BKN080 14/11 Q0999 BECMG NSW

TAF AMD TAF EKCH
Valide du 21 à 13h jusqu'au 22 à 12h UTC


211356Z 2113/2212 25018KT 9999 SCT030
TEMPO 2115/2210 24020G35KT 4000 SHRA BKN012 SCT020CB
TEMPO 2210/2212 24020G35KT 4000 SHRAGS SCT020CB
Pas de NOTAMs connus pour ce terrain.
1 SIGMET publié pour la FIR Kobenhavn (EKDK) :
 
Turbulence forte
EKDK SIGMET 2 VALID 211530/211730 EKMI
EKDK KOBENHAVN FIR SEV TURB FCST AT 1530Z WI N5709 E00833 - N5714 E00926 - N5736 E00958 - N5709 E00948 - N5629 E00759 - N5709 E00833 SFC/2000FT NC FCST AT 1730Z WI N5744 E01040 - N5717 E01027 - N5625 E00812 - N5712 E00852 - N5719 E00936 - N5744 E01040=



MET'MAP, la Météo Aéronautique d'un coup d'oeil ! - Copyright ORBIFLY Décembre 2007 - Disclaimer

ORBIFLY MET'MAP TEAM :

Programmation & Développement : Alexandra Zaïnal
Conception & Développement : Baudouin d'Aumeries
Co-Programmation & Développement : Marc-Olivier Méhu
Soutien technique & logistique : Manuel Goepfert

Contact : metmap@orbifly.com




SOURCES & CREDITS :

   NOAA